sensor_id;sensor_type;location;lat;lon;timestamp;P1;durP1;ratioP1;P2;durP2;ratioP2
16832;SDS011;8533;48.426;10.868;2022-07-23T00:00:19;6.80;;;5.43;;
16832;SDS011;8533;48.426;10.868;2022-07-23T00:02:47;7.17;;;4.87;;
16832;SDS011;8533;48.426;10.868;2022-07-23T00:05:14;7.30;;;5.63;;
16832;SDS011;8533;48.426;10.868;2022-07-23T00:07:42;10.63;;;5.20;;
16832;SDS011;8533;48.426;10.868;2022-07-23T00:10:09;6.23;;;5.40;;
16832;SDS011;8533;48.426;10.868;2022-07-23T00:12:37;6.77;;;5.17;;
16832;SDS011;8533;48.426;10.868;2022-07-23T00:15:06;8.10;;;5.40;;
16832;SDS011;8533;48.426;10.868;2022-07-23T00:17:34;6.70;;;5.67;;
16832;SDS011;8533;48.426;10.868;2022-07-23T00:20:01;6.13;;;5.20;;
16832;SDS011;8533;48.426;10.868;2022-07-23T00:22:29;7.60;;;5.77;;
16832;SDS011;8533;48.426;10.868;2022-07-23T00:24:57;5.60;;;4.80;;
16832;SDS011;8533;48.426;10.868;2022-07-23T00:27:24;6.60;;;4.90;;
16832;SDS011;8533;48.426;10.868;2022-07-23T00:29:52;6.30;;;4.63;;
16832;SDS011;8533;48.426;10.868;2022-07-23T00:32:19;8.63;;;4.80;;
16832;SDS011;8533;48.426;10.868;2022-07-23T00:34:46;7.43;;;4.77;;
16832;SDS011;8533;48.426;10.868;2022-07-23T00:37:14;5.07;;;4.53;;
16832;SDS011;8533;48.426;10.868;2022-07-23T00:39:41;5.67;;;4.50;;
16832;SDS011;8533;48.426;10.868;2022-07-23T00:42:09;5.70;;;4.57;;
16832;SDS011;8533;48.426;10.868;2022-07-23T00:44:36;7.00;;;4.60;;
16832;SDS011;8533;48.426;10.868;2022-07-23T00:47:04;6.20;;;4.63;;
16832;SDS011;8533;48.426;10.868;2022-07-23T00:49:33;5.37;;;4.70;;
16832;SDS011;8533;48.426;10.868;2022-07-23T00:52:00;6.90;;;4.90;;
16832;SDS011;8533;48.426;10.868;2022-07-23T00:54:29;7.00;;;4.83;;
16832;SDS011;8533;48.426;10.868;2022-07-23T00:56:56;8.10;;;4.80;;
16832;SDS011;8533;48.426;10.868;2022-07-23T00:59:24;7.27;;;4.80;;
16832;SDS011;8533;48.426;10.868;2022-07-23T01:01:51;5.27;;;4.03;;
16832;SDS011;8533;48.426;10.868;2022-07-23T01:04:19;4.37;;;3.80;;
16832;SDS011;8533;48.426;10.868;2022-07-23T01:06:46;4.20;;;3.80;;
16832;SDS011;8533;48.426;10.868;2022-07-23T01:09:14;8.07;;;4.30;;
16832;SDS011;8533;48.426;10.868;2022-07-23T01:11:41;7.67;;;4.03;;
16832;SDS011;8533;48.426;10.868;2022-07-23T01:14:12;5.70;;;4.30;;
16832;SDS011;8533;48.426;10.868;2022-07-23T01:16:42;5.00;;;4.40;;
16832;SDS011;8533;48.426;10.868;2022-07-23T01:19:11;7.70;;;4.70;;
16832;SDS011;8533;48.426;10.868;2022-07-23T01:21:40;7.37;;;4.43;;
16832;SDS011;8533;48.426;10.868;2022-07-23T01:24:09;6.43;;;4.83;;
16832;SDS011;8533;48.426;10.868;2022-07-23T01:26:37;6.20;;;5.03;;
16832;SDS011;8533;48.426;10.868;2022-07-23T01:29:06;7.60;;;4.97;;
16832;SDS011;8533;48.426;10.868;2022-07-23T01:31:34;5.90;;;4.37;;
16832;SDS011;8533;48.426;10.868;2022-07-23T01:34:01;6.60;;;4.90;;
16832;SDS011;8533;48.426;10.868;2022-07-23T01:36:30;8.80;;;5.50;;
16832;SDS011;8533;48.426;10.868;2022-07-23T01:38:57;6.97;;;5.03;;
16832;SDS011;8533;48.426;10.868;2022-07-23T01:41:25;8.53;;;5.73;;
16832;SDS011;8533;48.426;10.868;2022-07-23T01:43:53;11.70;;;6.43;;
16832;SDS011;8533;48.426;10.868;2022-07-23T01:46:20;8.43;;;5.90;;
16832;SDS011;8533;48.426;10.868;2022-07-23T01:48:48;9.40;;;6.33;;
16832;SDS011;8533;48.426;10.868;2022-07-23T01:51:16;9.43;;;6.80;;
16832;SDS011;8533;48.426;10.868;2022-07-23T01:53:43;10.93;;;6.80;;
16832;SDS011;8533;48.426;10.868;2022-07-23T01:56:10;9.23;;;6.57;;
16832;SDS011;8533;48.426;10.868;2022-07-23T01:58:39;11.00;;;7.03;;
16832;SDS011;8533;48.426;10.868;2022-07-23T02:01:07;13.07;;;7.23;;
16832;SDS011;8533;48.426;10.868;2022-07-23T02:03:35;12.00;;;6.50;;
16832;SDS011;8533;48.426;10.868;2022-07-23T02:06:02;9.13;;;6.50;;
16832;SDS011;8533;48.426;10.868;2022-07-23T02:08:30;12.30;;;7.13;;
16832;SDS011;8533;48.426;10.868;2022-07-23T02:10:57;9.10;;;6.70;;
16832;SDS011;8533;48.426;10.868;2022-07-23T02:13:24;13.80;;;7.80;;
16832;SDS011;8533;48.426;10.868;2022-07-23T02:15:52;9.83;;;7.33;;
16832;SDS011;8533;48.426;10.868;2022-07-23T02:18:19;8.53;;;6.20;;
16832;SDS011;8533;48.426;10.868;2022-07-23T02:20:47;12.03;;;6.77;;
16832;SDS011;8533;48.426;10.868;2022-07-23T02:23:14;9.80;;;7.63;;
16832;SDS011;8533;48.426;10.868;2022-07-23T02:25:41;12.00;;;6.93;;
16832;SDS011;8533;48.426;10.868;2022-07-23T02:28:09;8.87;;;6.63;;
16832;SDS011;8533;48.426;10.868;2022-07-23T02:30:36;9.50;;;6.67;;
16832;SDS011;8533;48.426;10.868;2022-07-23T02:33:04;9.20;;;6.53;;
16832;SDS011;8533;48.426;10.868;2022-07-23T02:35:32;10.93;;;7.03;;
16832;SDS011;8533;48.426;10.868;2022-07-23T02:37:59;10.53;;;7.33;;
16832;SDS011;8533;48.426;10.868;2022-07-23T02:40:27;13.47;;;7.60;;
16832;SDS011;8533;48.426;10.868;2022-07-23T02:42:54;11.27;;;7.57;;
16832;SDS011;8533;48.426;10.868;2022-07-23T02:45:22;12.07;;;8.27;;
16832;SDS011;8533;48.426;10.868;2022-07-23T02:47:49;13.20;;;7.90;;
16832;SDS011;8533;48.426;10.868;2022-07-23T02:50:16;11.87;;;7.40;;
16832;SDS011;8533;48.426;10.868;2022-07-23T02:52:44;9.77;;;6.87;;
16832;SDS011;8533;48.426;10.868;2022-07-23T02:55:11;10.20;;;6.97;;
16832;SDS011;8533;48.426;10.868;2022-07-23T02:57:39;10.60;;;7.17;;
16832;SDS011;8533;48.426;10.868;2022-07-23T03:00:06;9.97;;;7.20;;
16832;SDS011;8533;48.426;10.868;2022-07-23T03:02:35;10.50;;;7.27;;
16832;SDS011;8533;48.426;10.868;2022-07-23T03:05:02;10.00;;;7.23;;
16832;SDS011;8533;48.426;10.868;2022-07-23T03:07:30;11.40;;;6.80;;
16832;SDS011;8533;48.426;10.868;2022-07-23T03:09:57;10.63;;;6.87;;
16832;SDS011;8533;48.426;10.868;2022-07-23T03:12:25;10.13;;;7.00;;
16832;SDS011;8533;48.426;10.868;2022-07-23T03:14:53;10.33;;;7.57;;
16832;SDS011;8533;48.426;10.868;2022-07-23T03:17:21;11.60;;;8.03;;
16832;SDS011;8533;48.426;10.868;2022-07-23T03:19:48;11.07;;;6.83;;
16832;SDS011;8533;48.426;10.868;2022-07-23T03:22:15;10.17;;;7.27;;
16832;SDS011;8533;48.426;10.868;2022-07-23T03:24:43;9.43;;;6.40;;
16832;SDS011;8533;48.426;10.868;2022-07-23T03:29:49;10.00;;;7.40;;
16832;SDS011;8533;48.426;10.868;2022-07-23T03:32:18;10.53;;;6.50;;
16832;SDS011;8533;48.426;10.868;2022-07-23T03:34:45;9.57;;;6.40;;
16832;SDS011;8533;48.426;10.868;2022-07-23T03:37:13;10.30;;;6.70;;
16832;SDS011;8533;48.426;10.868;2022-07-23T03:39:41;9.47;;;6.43;;
16832;SDS011;8533;48.426;10.868;2022-07-23T03:42:08;7.73;;;6.00;;
16832;SDS011;8533;48.426;10.868;2022-07-23T03:44:36;10.13;;;5.93;;
16832;SDS011;8533;48.426;10.868;2022-07-23T03:47:04;8.20;;;5.70;;
16832;SDS011;8533;48.426;10.868;2022-07-23T03:49:33;8.30;;;5.70;;
16832;SDS011;8533;48.426;10.868;2022-07-23T03:52:01;7.27;;;4.97;;
16832;SDS011;8533;48.426;10.868;2022-07-23T03:54:28;13.73;;;6.17;;
16832;SDS011;8533;48.426;10.868;2022-07-23T03:56:56;8.27;;;5.87;;
16832;SDS011;8533;48.426;10.868;2022-07-23T03:59:23;8.17;;;5.33;;
16832;SDS011;8533;48.426;10.868;2022-07-23T04:01:51;7.13;;;4.93;;
16832;SDS011;8533;48.426;10.868;2022-07-23T04:04:18;7.57;;;5.23;;
16832;SDS011;8533;48.426;10.868;2022-07-23T04:06:46;7.73;;;5.23;;
16832;SDS011;8533;48.426;10.868;2022-07-23T04:09:13;9.57;;;5.43;;
16832;SDS011;8533;48.426;10.868;2022-07-23T04:11:41;7.37;;;4.90;;
16832;SDS011;8533;48.426;10.868;2022-07-23T04:14:08;6.97;;;4.77;;
16832;SDS011;8533;48.426;10.868;2022-07-23T04:16:35;7.23;;;5.40;;
16832;SDS011;8533;48.426;10.868;2022-07-23T04:19:03;6.90;;;4.63;;
16832;SDS011;8533;48.426;10.868;2022-07-23T04:21:30;6.87;;;5.43;;
16832;SDS011;8533;48.426;10.868;2022-07-23T04:23:58;10.67;;;5.30;;
16832;SDS011;8533;48.426;10.868;2022-07-23T04:26:25;7.30;;;4.80;;
16832;SDS011;8533;48.426;10.868;2022-07-23T04:28:53;6.87;;;5.67;;
16832;SDS011;8533;48.426;10.868;2022-07-23T04:31:21;8.03;;;5.60;;
16832;SDS011;8533;48.426;10.868;2022-07-23T04:33:48;6.87;;;4.87;;
16832;SDS011;8533;48.426;10.868;2022-07-23T04:36:16;7.20;;;4.70;;
16832;SDS011;8533;48.426;10.868;2022-07-23T04:38:43;5.97;;;4.87;;
16832;SDS011;8533;48.426;10.868;2022-07-23T04:41:11;7.07;;;5.10;;
16832;SDS011;8533;48.426;10.868;2022-07-23T04:43:39;6.77;;;4.93;;
16832;SDS011;8533;48.426;10.868;2022-07-23T04:46:08;7.10;;;5.10;;
16832;SDS011;8533;48.426;10.868;2022-07-23T04:48:36;8.53;;;5.27;;
16832;SDS011;8533;48.426;10.868;2022-07-23T04:51:04;6.13;;;4.50;;
16832;SDS011;8533;48.426;10.868;2022-07-23T04:53:32;6.90;;;4.70;;
16832;SDS011;8533;48.426;10.868;2022-07-23T04:55:59;7.57;;;5.47;;
16832;SDS011;8533;48.426;10.868;2022-07-23T04:58:27;7.97;;;4.93;;
16832;SDS011;8533;48.426;10.868;2022-07-23T05:00:54;6.23;;;4.70;;
16832;SDS011;8533;48.426;10.868;2022-07-23T05:03:23;6.80;;;4.53;;
16832;SDS011;8533;48.426;10.868;2022-07-23T05:05:50;6.63;;;4.40;;
16832;SDS011;8533;48.426;10.868;2022-07-23T05:08:18;5.60;;;4.30;;
16832;SDS011;8533;48.426;10.868;2022-07-23T05:10:45;7.93;;;4.60;;
16832;SDS011;8533;48.426;10.868;2022-07-23T05:13:16;8.47;;;4.60;;
16832;SDS011;8533;48.426;10.868;2022-07-23T05:15:44;6.40;;;4.37;;
16832;SDS011;8533;48.426;10.868;2022-07-23T05:18:13;7.23;;;4.20;;
16832;SDS011;8533;48.426;10.868;2022-07-23T05:20:42;7.63;;;4.80;;
16832;SDS011;8533;48.426;10.868;2022-07-23T05:23:09;5.43;;;4.43;;
16832;SDS011;8533;48.426;10.868;2022-07-23T05:25:36;6.87;;;4.47;;
16832;SDS011;8533;48.426;10.868;2022-07-23T05:28:04;6.70;;;4.47;;
16832;SDS011;8533;48.426;10.868;2022-07-23T05:30:31;8.50;;;4.83;;
16832;SDS011;8533;48.426;10.868;2022-07-23T05:33:00;8.13;;;4.77;;
16832;SDS011;8533;48.426;10.868;2022-07-23T05:35:27;5.33;;;4.10;;
16832;SDS011;8533;48.426;10.868;2022-07-23T05:37:55;8.37;;;4.30;;
16832;SDS011;8533;48.426;10.868;2022-07-23T05:40:23;7.60;;;5.17;;
16832;SDS011;8533;48.426;10.868;2022-07-23T05:42:50;6.70;;;5.03;;
16832;SDS011;8533;48.426;10.868;2022-07-23T05:45:19;5.57;;;4.30;;
16832;SDS011;8533;48.426;10.868;2022-07-23T05:47:47;7.20;;;4.90;;
16832;SDS011;8533;48.426;10.868;2022-07-23T05:50:15;6.60;;;4.60;;
16832;SDS011;8533;48.426;10.868;2022-07-23T05:52:43;6.23;;;4.80;;
16832;SDS011;8533;48.426;10.868;2022-07-23T05:55:12;8.13;;;5.17;;
16832;SDS011;8533;48.426;10.868;2022-07-23T05:57:40;8.33;;;5.43;;
16832;SDS011;8533;48.426;10.868;2022-07-23T06:00:09;6.97;;;4.70;;
16832;SDS011;8533;48.426;10.868;2022-07-23T06:02:37;8.07;;;5.30;;
16832;SDS011;8533;48.426;10.868;2022-07-23T06:05:06;7.83;;;5.50;;
16832;SDS011;8533;48.426;10.868;2022-07-23T06:07:35;7.53;;;5.23;;
16832;SDS011;8533;48.426;10.868;2022-07-23T06:10:03;8.03;;;5.40;;
16832;SDS011;8533;48.426;10.868;2022-07-23T06:12:31;7.13;;;5.00;;
16832;SDS011;8533;48.426;10.868;2022-07-23T06:14:59;9.00;;;5.27;;
16832;SDS011;8533;48.426;10.868;2022-07-23T06:17:27;6.87;;;5.07;;
16832;SDS011;8533;48.426;10.868;2022-07-23T06:19:56;6.77;;;5.20;;
16832;SDS011;8533;48.426;10.868;2022-07-23T06:22:23;8.43;;;5.60;;
16832;SDS011;8533;48.426;10.868;2022-07-23T06:24:51;7.73;;;5.37;;
16832;SDS011;8533;48.426;10.868;2022-07-23T06:27:19;6.90;;;4.97;;
16832;SDS011;8533;48.426;10.868;2022-07-23T06:29:46;10.90;;;5.80;;
16832;SDS011;8533;48.426;10.868;2022-07-23T06:32:14;6.87;;;4.87;;
16832;SDS011;8533;48.426;10.868;2022-07-23T06:34:41;7.27;;;5.30;;
16832;SDS011;8533;48.426;10.868;2022-07-23T06:37:10;6.83;;;4.70;;
16832;SDS011;8533;48.426;10.868;2022-07-23T06:39:37;8.13;;;4.90;;
16832;SDS011;8533;48.426;10.868;2022-07-23T06:42:04;7.93;;;4.80;;
16832;SDS011;8533;48.426;10.868;2022-07-23T06:44:33;7.90;;;4.70;;
16832;SDS011;8533;48.426;10.868;2022-07-23T06:47:00;8.00;;;4.93;;
16832;SDS011;8533;48.426;10.868;2022-07-23T06:49:28;7.13;;;4.83;;
16832;SDS011;8533;48.426;10.868;2022-07-23T06:51:56;6.43;;;4.80;;
16832;SDS011;8533;48.426;10.868;2022-07-23T06:54:23;7.37;;;5.40;;
16832;SDS011;8533;48.426;10.868;2022-07-23T06:56:50;8.83;;;4.87;;
16832;SDS011;8533;48.426;10.868;2022-07-23T06:59:18;7.53;;;5.50;;
16832;SDS011;8533;48.426;10.868;2022-07-23T07:01:45;7.60;;;4.97;;
16832;SDS011;8533;48.426;10.868;2022-07-23T07:04:13;8.40;;;5.10;;
16832;SDS011;8533;48.426;10.868;2022-07-23T07:06:40;7.93;;;5.23;;
16832;SDS011;8533;48.426;10.868;2022-07-23T07:09:08;8.70;;;5.60;;
16832;SDS011;8533;48.426;10.868;2022-07-23T07:11:35;6.83;;;5.33;;
16832;SDS011;8533;48.426;10.868;2022-07-23T07:14:03;7.00;;;5.17;;
16832;SDS011;8533;48.426;10.868;2022-07-23T07:16:30;6.53;;;5.30;;
16832;SDS011;8533;48.426;10.868;2022-07-23T07:18:58;7.03;;;4.80;;
16832;SDS011;8533;48.426;10.868;2022-07-23T07:21:26;7.67;;;5.40;;
16832;SDS011;8533;48.426;10.868;2022-07-23T07:23:54;7.33;;;5.10;;
16832;SDS011;8533;48.426;10.868;2022-07-23T07:26:21;7.47;;;5.40;;
16832;SDS011;8533;48.426;10.868;2022-07-23T07:28:48;7.90;;;4.87;;
16832;SDS011;8533;48.426;10.868;2022-07-23T07:31:17;8.10;;;5.30;;
16832;SDS011;8533;48.426;10.868;2022-07-23T07:33:44;6.10;;;5.10;;
16832;SDS011;8533;48.426;10.868;2022-07-23T07:36:12;7.27;;;5.43;;
16832;SDS011;8533;48.426;10.868;2022-07-23T07:38:39;7.57;;;5.43;;
16832;SDS011;8533;48.426;10.868;2022-07-23T07:41:07;10.97;;;5.47;;
16832;SDS011;8533;48.426;10.868;2022-07-23T07:43:35;7.60;;;5.23;;
16832;SDS011;8533;48.426;10.868;2022-07-23T07:46:04;8.07;;;5.90;;
16832;SDS011;8533;48.426;10.868;2022-07-23T07:48:33;5.80;;;4.80;;
16832;SDS011;8533;48.426;10.868;2022-07-23T07:51:01;10.67;;;7.23;;
16832;SDS011;8533;48.426;10.868;2022-07-23T07:53:28;7.67;;;5.13;;
16832;SDS011;8533;48.426;10.868;2022-07-23T07:55:56;9.37;;;4.80;;
16832;SDS011;8533;48.426;10.868;2022-07-23T07:58:23;6.10;;;5.00;;
16832;SDS011;8533;48.426;10.868;2022-07-23T08:00:52;7.53;;;5.23;;
16832;SDS011;8533;48.426;10.868;2022-07-23T08:03:19;7.10;;;5.67;;
16832;SDS011;8533;48.426;10.868;2022-07-23T08:05:48;12.80;;;7.60;;
16832;SDS011;8533;48.426;10.868;2022-07-23T08:08:15;10.53;;;7.40;;
16832;SDS011;8533;48.426;10.868;2022-07-23T08:10:43;9.53;;;5.57;;
16832;SDS011;8533;48.426;10.868;2022-07-23T08:13:14;8.17;;;5.60;;
16832;SDS011;8533;48.426;10.868;2022-07-23T08:15:42;6.53;;;4.90;;
16832;SDS011;8533;48.426;10.868;2022-07-23T08:18:10;8.07;;;4.97;;
16832;SDS011;8533;48.426;10.868;2022-07-23T08:20:37;6.03;;;4.57;;
16832;SDS011;8533;48.426;10.868;2022-07-23T08:23:06;9.10;;;5.70;;
16832;SDS011;8533;48.426;10.868;2022-07-23T08:25:36;7.07;;;5.30;;
16832;SDS011;8533;48.426;10.868;2022-07-23T08:28:06;8.30;;;5.50;;
16832;SDS011;8533;48.426;10.868;2022-07-23T08:30:37;6.70;;;5.50;;
16832;SDS011;8533;48.426;10.868;2022-07-23T08:33:06;7.03;;;5.77;;
16832;SDS011;8533;48.426;10.868;2022-07-23T08:35:39;6.53;;;5.37;;
16832;SDS011;8533;48.426;10.868;2022-07-23T08:38:10;5.70;;;5.03;;
16832;SDS011;8533;48.426;10.868;2022-07-23T08:40:44;6.20;;;4.67;;
16832;SDS011;8533;48.426;10.868;2022-07-23T08:43:14;7.33;;;4.93;;
16832;SDS011;8533;48.426;10.868;2022-07-23T08:45:43;6.00;;;4.50;;
16832;SDS011;8533;48.426;10.868;2022-07-23T08:48:19;4.57;;;4.13;;
16832;SDS011;8533;48.426;10.868;2022-07-23T08:53:16;5.80;;;4.60;;
16832;SDS011;8533;48.426;10.868;2022-07-23T08:55:44;5.80;;;4.63;;
16832;SDS011;8533;48.426;10.868;2022-07-23T08:58:17;4.90;;;4.33;;
16832;SDS011;8533;48.426;10.868;2022-07-23T09:00:46;5.90;;;4.33;;
16832;SDS011;8533;48.426;10.868;2022-07-23T09:03:16;4.93;;;3.97;;
16832;SDS011;8533;48.426;10.868;2022-07-23T09:05:45;5.97;;;4.27;;
16832;SDS011;8533;48.426;10.868;2022-07-23T09:10:55;10.50;;;4.20;;
16832;SDS011;8533;48.426;10.868;2022-07-23T09:18:48;6.07;;;4.43;;
16832;SDS011;8533;48.426;10.868;2022-07-23T09:21:24;6.30;;;4.60;;
16832;SDS011;8533;48.426;10.868;2022-07-23T09:29:03;5.27;;;4.50;;
16832;SDS011;8533;48.426;10.868;2022-07-23T09:31:45;5.43;;;4.23;;
16832;SDS011;8533;48.426;10.868;2022-07-23T09:34:27;4.50;;;4.10;;
16832;SDS011;8533;48.426;10.868;2022-07-23T09:42:19;4.20;;;3.80;;
16832;SDS011;8533;48.426;10.868;2022-07-23T09:44:49;6.50;;;4.60;;
16832;SDS011;8533;48.426;10.868;2022-07-23T09:47:18;5.93;;;4.00;;
16832;SDS011;8533;48.426;10.868;2022-07-23T09:52:57;4.63;;;4.03;;
16832;SDS011;8533;48.426;10.868;2022-07-23T09:57:43;5.47;;;4.40;;
16832;SDS011;8533;48.426;10.868;2022-07-23T10:00:14;6.20;;;4.50;;
16832;SDS011;8533;48.426;10.868;2022-07-23T10:02:41;5.77;;;4.30;;
16832;SDS011;8533;48.426;10.868;2022-07-23T10:05:13;4.63;;;4.00;;
16832;SDS011;8533;48.426;10.868;2022-07-23T10:07:41;7.53;;;4.90;;
16832;SDS011;8533;48.426;10.868;2022-07-23T10:10:10;5.60;;;4.67;;
16832;SDS011;8533;48.426;10.868;2022-07-23T10:12:39;5.57;;;4.63;;
16832;SDS011;8533;48.426;10.868;2022-07-23T10:17:47;8.20;;;4.80;;
16832;SDS011;8533;48.426;10.868;2022-07-23T10:20:15;5.33;;;4.67;;
16832;SDS011;8533;48.426;10.868;2022-07-23T10:22:54;6.10;;;4.33;;
16832;SDS011;8533;48.426;10.868;2022-07-23T10:30:45;5.87;;;4.97;;
16832;SDS011;8533;48.426;10.868;2022-07-23T10:35:50;5.97;;;4.80;;
16832;SDS011;8533;48.426;10.868;2022-07-23T10:40:56;5.07;;;4.40;;
16832;SDS011;8533;48.426;10.868;2022-07-23T10:46:12;6.03;;;4.70;;
16832;SDS011;8533;48.426;10.868;2022-07-23T10:48:27;4.90;;;4.43;;
16832;SDS011;8533;48.426;10.868;2022-07-23T10:51:14;5.07;;;4.43;;
16832;SDS011;8533;48.426;10.868;2022-07-23T10:59:06;5.45;;;4.60;;
16832;SDS011;8533;48.426;10.868;2022-07-23T11:01:37;6.50;;;4.80;;
16832;SDS011;8533;48.426;10.868;2022-07-23T11:04:07;6.57;;;5.10;;
16832;SDS011;8533;48.426;10.868;2022-07-23T11:09:24;5.77;;;5.20;;
16832;SDS011;8533;48.426;10.868;2022-07-23T11:17:19;5.27;;;4.73;;
16832;SDS011;8533;48.426;10.868;2022-07-23T11:25:05;6.80;;;5.20;;
16832;SDS011;8533;48.426;10.868;2022-07-23T11:27:39;5.93;;;4.57;;
16832;SDS011;8533;48.426;10.868;2022-07-23T11:32:37;4.73;;;4.23;;
16832;SDS011;8533;48.426;10.868;2022-07-23T11:35:22;6.50;;;5.10;;
16832;SDS011;8533;48.426;10.868;2022-07-23T11:37:54;6.23;;;4.67;;
16832;SDS011;8533;48.426;10.868;2022-07-23T11:40:24;7.77;;;4.40;;
16832;SDS011;8533;48.426;10.868;2022-07-23T11:45:29;5.27;;;4.77;;
16832;SDS011;8533;48.426;10.868;2022-07-23T11:47:59;5.43;;;4.77;;
16832;SDS011;8533;48.426;10.868;2022-07-23T11:50:26;5.83;;;5.00;;
16832;SDS011;8533;48.426;10.868;2022-07-23T11:52:54;5.63;;;4.60;;
16832;SDS011;8533;48.426;10.868;2022-07-23T11:55:22;6.93;;;5.23;;
16832;SDS011;8533;48.426;10.868;2022-07-23T11:57:51;5.40;;;4.87;;
16832;SDS011;8533;48.426;10.868;2022-07-23T12:00:21;5.33;;;4.80;;
16832;SDS011;8533;48.426;10.868;2022-07-23T12:02:51;5.77;;;4.20;;
16832;SDS011;8533;48.426;10.868;2022-07-23T12:05:25;4.90;;;4.50;;
16832;SDS011;8533;48.426;10.868;2022-07-23T12:07:52;5.17;;;4.43;;
16832;SDS011;8533;48.426;10.868;2022-07-23T12:10:25;7.07;;;4.83;;
16832;SDS011;8533;48.426;10.868;2022-07-23T12:13:08;4.77;;;4.27;;
16832;SDS011;8533;48.426;10.868;2022-07-23T12:15:41;5.10;;;4.60;;
16832;SDS011;8533;48.426;10.868;2022-07-23T12:18:11;6.07;;;4.17;;
16832;SDS011;8533;48.426;10.868;2022-07-23T12:20:46;5.97;;;4.53;;
16832;SDS011;8533;48.426;10.868;2022-07-23T12:23:12;5.40;;;4.70;;
16832;SDS011;8533;48.426;10.868;2022-07-23T12:25:43;5.90;;;4.70;;
16832;SDS011;8533;48.426;10.868;2022-07-23T12:28:12;6.63;;;4.60;;
16832;SDS011;8533;48.426;10.868;2022-07-23T12:33:25;5.37;;;4.57;;
16832;SDS011;8533;48.426;10.868;2022-07-23T12:35:58;5.30;;;4.50;;
16832;SDS011;8533;48.426;10.868;2022-07-23T12:38:38;6.63;;;5.33;;
16832;SDS011;8533;48.426;10.868;2022-07-23T12:43:37;6.97;;;4.90;;
16832;SDS011;8533;48.426;10.868;2022-07-23T12:46:16;9.53;;;5.30;;
16832;SDS011;8533;48.426;10.868;2022-07-23T12:51:20;8.57;;;5.83;;
16832;SDS011;8533;48.426;10.868;2022-07-23T12:53:53;5.57;;;4.97;;
16832;SDS011;8533;48.426;10.868;2022-07-23T12:56:36;7.33;;;5.40;;
16832;SDS011;8533;48.426;10.868;2022-07-23T12:59:13;6.40;;;5.20;;
16832;SDS011;8533;48.426;10.868;2022-07-23T13:06:51;5.77;;;5.17;;
16832;SDS011;8533;48.426;10.868;2022-07-23T13:09:21;7.63;;;6.30;;
16832;SDS011;8533;48.426;10.868;2022-07-23T13:11:51;6.17;;;5.57;;
16832;SDS011;8533;48.426;10.868;2022-07-23T13:14:21;8.03;;;5.27;;
16832;SDS011;8533;48.426;10.868;2022-07-23T13:16:50;7.67;;;5.80;;
16832;SDS011;8533;48.426;10.868;2022-07-23T13:19:19;6.70;;;5.60;;
16832;SDS011;8533;48.426;10.868;2022-07-23T13:21:50;7.97;;;5.17;;
16832;SDS011;8533;48.426;10.868;2022-07-23T13:24:17;7.63;;;5.63;;
16832;SDS011;8533;48.426;10.868;2022-07-23T13:26:46;6.63;;;5.43;;
16832;SDS011;8533;48.426;10.868;2022-07-23T13:29:15;8.47;;;6.03;;
16832;SDS011;8533;48.426;10.868;2022-07-23T13:31:43;6.83;;;5.83;;
16832;SDS011;8533;48.426;10.868;2022-07-23T13:34:10;7.83;;;5.67;;
16832;SDS011;8533;48.426;10.868;2022-07-23T13:36:38;7.57;;;6.20;;
16832;SDS011;8533;48.426;10.868;2022-07-23T13:39:05;7.80;;;6.00;;
16832;SDS011;8533;48.426;10.868;2022-07-23T13:41:33;9.47;;;6.33;;
16832;SDS011;8533;48.426;10.868;2022-07-23T13:44:01;9.53;;;7.17;;
16832;SDS011;8533;48.426;10.868;2022-07-23T13:46:29;7.27;;;5.83;;
16832;SDS011;8533;48.426;10.868;2022-07-23T13:48:56;7.97;;;5.87;;
16832;SDS011;8533;48.426;10.868;2022-07-23T13:51:24;6.67;;;5.23;;
16832;SDS011;8533;48.426;10.868;2022-07-23T13:53:51;6.30;;;5.00;;
16832;SDS011;8533;48.426;10.868;2022-07-23T13:56:20;7.23;;;5.77;;
16832;SDS011;8533;48.426;10.868;2022-07-23T13:58:48;6.83;;;5.57;;
16832;SDS011;8533;48.426;10.868;2022-07-23T14:01:16;6.77;;;5.10;;
16832;SDS011;8533;48.426;10.868;2022-07-23T14:03:43;6.47;;;5.47;;
16832;SDS011;8533;48.426;10.868;2022-07-23T14:06:11;6.70;;;5.27;;
16832;SDS011;8533;48.426;10.868;2022-07-23T14:08:39;6.03;;;5.30;;
16832;SDS011;8533;48.426;10.868;2022-07-23T14:11:07;7.73;;;5.73;;
16832;SDS011;8533;48.426;10.868;2022-07-23T14:13:34;7.03;;;5.80;;
16832;SDS011;8533;48.426;10.868;2022-07-23T14:16:03;5.00;;;4.47;;
16832;SDS011;8533;48.426;10.868;2022-07-23T14:18:30;6.63;;;5.80;;
16832;SDS011;8533;48.426;10.868;2022-07-23T14:20:58;5.97;;;5.27;;
16832;SDS011;8533;48.426;10.868;2022-07-23T14:23:25;7.90;;;5.47;;
16832;SDS011;8533;48.426;10.868;2022-07-23T14:25:53;9.70;;;5.87;;
16832;SDS011;8533;48.426;10.868;2022-07-23T14:28:20;5.83;;;5.10;;
16832;SDS011;8533;48.426;10.868;2022-07-23T14:30:47;6.57;;;5.17;;
16832;SDS011;8533;48.426;10.868;2022-07-23T14:33:15;5.30;;;4.67;;
16832;SDS011;8533;48.426;10.868;2022-07-23T14:35:43;4.40;;;3.93;;
16832;SDS011;8533;48.426;10.868;2022-07-23T14:38:10;7.57;;;4.60;;
16832;SDS011;8533;48.426;10.868;2022-07-23T14:40:38;5.97;;;5.17;;
16832;SDS011;8533;48.426;10.868;2022-07-23T14:43:06;6.10;;;5.03;;
16832;SDS011;8533;48.426;10.868;2022-07-23T14:45:33;6.73;;;5.13;;
16832;SDS011;8533;48.426;10.868;2022-07-23T14:48:01;5.13;;;4.63;;
16832;SDS011;8533;48.426;10.868;2022-07-23T14:50:29;6.97;;;4.93;;
16832;SDS011;8533;48.426;10.868;2022-07-23T14:52:57;5.57;;;4.97;;
16832;SDS011;8533;48.426;10.868;2022-07-23T14:55:24;6.37;;;5.00;;
16832;SDS011;8533;48.426;10.868;2022-07-23T14:57:53;7.13;;;5.40;;
16832;SDS011;8533;48.426;10.868;2022-07-23T15:00:20;7.27;;;5.33;;
16832;SDS011;8533;48.426;10.868;2022-07-23T15:02:48;6.00;;;5.13;;
16832;SDS011;8533;48.426;10.868;2022-07-23T15:05:16;6.33;;;5.33;;
16832;SDS011;8533;48.426;10.868;2022-07-23T15:07:43;5.37;;;4.87;;
16832;SDS011;8533;48.426;10.868;2022-07-23T15:10:11;5.67;;;5.07;;
16832;SDS011;8533;48.426;10.868;2022-07-23T15:12:38;7.00;;;5.63;;
16832;SDS011;8533;48.426;10.868;2022-07-23T15:15:06;6.63;;;5.60;;
16832;SDS011;8533;48.426;10.868;2022-07-23T15:17:34;6.47;;;5.20;;
16832;SDS011;8533;48.426;10.868;2022-07-23T15:20:01;6.83;;;5.33;;
16832;SDS011;8533;48.426;10.868;2022-07-23T15:22:29;6.77;;;5.50;;
16832;SDS011;8533;48.426;10.868;2022-07-23T15:24:57;5.27;;;4.70;;
16832;SDS011;8533;48.426;10.868;2022-07-23T15:27:25;8.27;;;5.90;;
16832;SDS011;8533;48.426;10.868;2022-07-23T15:29:53;7.30;;;5.17;;
16832;SDS011;8533;48.426;10.868;2022-07-23T15:32:21;6.03;;;5.13;;
16832;SDS011;8533;48.426;10.868;2022-07-23T15:34:50;7.93;;;4.97;;
16832;SDS011;8533;48.426;10.868;2022-07-23T15:37:17;5.83;;;5.13;;
16832;SDS011;8533;48.426;10.868;2022-07-23T15:39:45;6.77;;;5.27;;
16832;SDS011;8533;48.426;10.868;2022-07-23T15:42:12;8.47;;;5.33;;
16832;SDS011;8533;48.426;10.868;2022-07-23T15:44:41;5.87;;;4.83;;
16832;SDS011;8533;48.426;10.868;2022-07-23T15:47:13;6.67;;;5.70;;
16832;SDS011;8533;48.426;10.868;2022-07-23T15:49:43;7.03;;;5.73;;
16832;SDS011;8533;48.426;10.868;2022-07-23T15:52:12;6.43;;;5.60;;
16832;SDS011;8533;48.426;10.868;2022-07-23T15:54:41;6.57;;;5.70;;
16832;SDS011;8533;48.426;10.868;2022-07-23T15:57:08;7.10;;;5.83;;
16832;SDS011;8533;48.426;10.868;2022-07-23T15:59:36;5.77;;;4.97;;
16832;SDS011;8533;48.426;10.868;2022-07-23T16:02:03;8.07;;;5.30;;
16832;SDS011;8533;48.426;10.868;2022-07-23T16:04:31;6.57;;;5.67;;
16832;SDS011;8533;48.426;10.868;2022-07-23T16:06:59;6.83;;;5.10;;
16832;SDS011;8533;48.426;10.868;2022-07-23T16:09:27;5.80;;;4.73;;
16832;SDS011;8533;48.426;10.868;2022-07-23T16:11:55;5.53;;;4.77;;
16832;SDS011;8533;48.426;10.868;2022-07-23T16:14:22;8.17;;;5.43;;